AFL1301 URMM-UUEE
Flight info
| Callsign | AFL1301 |
|---|---|
| Flight time | N/A |
| Altitude | 35000 |
| Route | URILU5M URILU R227 BEMES DCT VULFI DCT TUVGI DCT EVZUN DCT ZIZAR DCT VAZLU DCT UZZID DCT NOKLI N72 WGD G481 OBABI T619 UMRAL P163 GOLRI L736 OLOPI OLOPI3W |
| Aircraft | A321/M-SDE3FGHIRWY/LB1 |
Departure
| Time | N/A |
|---|---|
| Airport | Mineralnye Vody Airport (URMM) |
Arrival
| Time | 2026-05-06 18:17 |
|---|---|
| Airport | Sheremetyevo International Airport (UUEE) |
| Time | Latitude | Longitude | Altitude | Speed | Heading |
|---|---|---|---|---|---|
| 2026-05-06 16:50 | 52.34268 | 41.97167 | 35918 ft | 451 kts | 343° |
| 2026-05-06 16:50 | 52.37318 | 41.96028 | 35914 ft | 451 kts | 352° |
| 2026-05-06 16:51 | 52.43549 | 41.95845 | 35913 ft | 451 kts | 2° |
| 2026-05-06 16:51 | 52.49823 | 41.96202 | 35911 ft | 451 kts | 1° |
| 2026-05-06 16:52 | 52.56093 | 41.96527 | 35910 ft | 451 kts | 1° |
| 2026-05-06 16:52 | 52.62366 | 41.96866 | 35910 ft | 451 kts | 1° |
| 2026-05-06 16:53 | 52.68602 | 41.96219 | 35906 ft | 450 kts | 346° |
| 2026-05-06 16:53 | 52.74358 | 41.92311 | 35904 ft | 449 kts | 327° |
| 2026-05-06 16:54 | 52.79240 | 41.86020 | 35900 ft | 448 kts | 320° |
| 2026-05-06 16:54 | 52.84087 | 41.79497 | 35898 ft | 449 kts | 321° |
| 2026-05-06 16:55 | 52.88935 | 41.72972 | 35897 ft | 449 kts | 320° |
| 2026-05-06 16:55 | 52.93777 | 41.66423 | 35899 ft | 449 kts | 320° |
| 2026-05-06 16:56 | 52.98618 | 41.59849 | 35900 ft | 449 kts | 320° |
| 2026-05-06 16:56 | 53.03441 | 41.53252 | 35901 ft | 449 kts | 320° |
| 2026-05-06 16:57 | 53.08230 | 41.46694 | 35901 ft | 449 kts | 320° |
| 2026-05-06 16:57 | 53.13051 | 41.40080 | 35901 ft | 449 kts | 320° |
| 2026-05-06 16:58 | 53.17864 | 41.33448 | 35902 ft | 449 kts | 320° |
| 2026-05-06 16:58 | 53.22908 | 41.27351 | 35899 ft | 449 kts | 332° |
| 2026-05-06 16:59 | 53.28748 | 41.23714 | 35900 ft | 449 kts | 343° |
| 2026-05-06 16:59 | 53.34726 | 41.20676 | 35899 ft | 449 kts | 342° |
| 2026-05-06 17:00 | 53.40704 | 41.17620 | 35900 ft | 449 kts | 342° |
| 2026-05-06 17:00 | 53.46641 | 41.14579 | 35901 ft | 449 kts | 342° |
| 2026-05-06 17:01 | 53.52611 | 41.11515 | 35902 ft | 449 kts | 342° |
| 2026-05-06 17:01 | 53.58581 | 41.08421 | 35900 ft | 449 kts | 342° |
| 2026-05-06 17:02 | 53.64520 | 41.05193 | 35896 ft | 448 kts | 336° |
| 2026-05-06 17:02 | 53.67263 | 41.02725 | 35896 ft | 447 kts | 325° |
| 2026-05-06 17:02 | 53.69695 | 40.99473 | 35895 ft | 446 kts | 315° |
| 2026-05-06 17:03 | 53.72847 | 40.92639 | 35895 ft | 445 kts | 298° |
| 2026-05-06 17:03 | 53.75404 | 40.83120 | 35892 ft | 445 kts | 293° |
| 2026-05-06 17:04 | 53.77884 | 40.73521 | 35889 ft | 446 kts | 294° |
| 2026-05-06 17:04 | 53.80369 | 40.63911 | 35893 ft | 446 kts | 293° |
| 2026-05-06 17:05 | 53.82828 | 40.54282 | 35892 ft | 446 kts | 293° |
| 2026-05-06 17:05 | 53.85253 | 40.44694 | 35895 ft | 446 kts | 293° |
| 2026-05-06 17:06 | 53.87689 | 40.35039 | 35897 ft | 445 kts | 293° |
| 2026-05-06 17:06 | 53.90128 | 40.25385 | 35898 ft | 445 kts | 293° |
| 2026-05-06 17:07 | 53.92572 | 40.15733 | 35900 ft | 445 kts | 293° |
| 2026-05-06 17:07 | 53.95003 | 40.06069 | 35903 ft | 445 kts | 293° |
| 2026-05-06 17:08 | 53.97419 | 39.96390 | 35906 ft | 445 kts | 292° |
| 2026-05-06 17:08 | 53.99823 | 39.86695 | 35912 ft | 445 kts | 293° |
| 2026-05-06 17:09 | 54.02208 | 39.77056 | 35921 ft | 445 kts | 292° |
| 2026-05-06 17:09 | 54.04599 | 39.67342 | 35925 ft | 445 kts | 292° |
| 2026-05-06 17:10 | 54.06993 | 39.57647 | 35924 ft | 445 kts | 292° |
| 2026-05-06 17:10 | 54.09370 | 39.47924 | 35928 ft | 445 kts | 292° |
| 2026-05-06 17:11 | 54.11727 | 39.38203 | 35390 ft | 445 kts | 292° |
| 2026-05-06 17:11 | 54.12913 | 39.33291 | 34370 ft | 453 kts | 292° |
| 2026-05-06 17:11 | 54.14118 | 39.28302 | 33453 ft | 457 kts | 292° |
| 2026-05-06 17:11 | 54.15330 | 39.23277 | 32586 ft | 459 kts | 292° |
| 2026-05-06 17:12 | 54.16546 | 39.18236 | 31717 ft | 460 kts | 292° |
| 2026-05-06 17:12 | 54.17754 | 39.13244 | 30814 ft | 462 kts | 292° |
| 2026-05-06 17:12 | 54.18980 | 39.08155 | 29848 ft | 465 kts | 292° |
| 2026-05-06 17:12 | 54.20201 | 39.03051 | 29200 ft | 460 kts | 292° |
| 2026-05-06 17:13 | 54.21396 | 38.98082 | 29074 ft | 444 kts | 295° |
| 2026-05-06 17:13 | 54.22884 | 38.93582 | 28939 ft | 429 kts | 306° |
| 2026-05-06 17:13 | 54.24797 | 38.89786 | 28723 ft | 417 kts | 317° |
| 2026-05-06 17:13 | 54.27055 | 38.86754 | 28299 ft | 411 kts | 328° |
| 2026-05-06 17:14 | 54.29565 | 38.84472 | 27789 ft | 407 kts | 333° |
| 2026-05-06 17:14 | 54.32098 | 38.82336 | 27269 ft | 404 kts | 333° |
| 2026-05-06 17:14 | 54.34597 | 38.80217 | 27032 ft | 398 kts | 333° |
| 2026-05-06 17:14 | 54.37079 | 38.78106 | 26847 ft | 398 kts | 333° |
| 2026-05-06 17:15 | 54.39554 | 38.75992 | 26652 ft | 397 kts | 333° |
| 2026-05-06 17:15 | 54.42018 | 38.73879 | 26459 ft | 396 kts | 333° |
| 2026-05-06 17:15 | 54.44484 | 38.71757 | 26267 ft | 395 kts | 333° |
| 2026-05-06 17:15 | 54.46900 | 38.69672 | 26075 ft | 394 kts | 333° |
| 2026-05-06 17:16 | 54.49352 | 38.67556 | 25898 ft | 393 kts | 333° |
| 2026-05-06 17:16 | 54.51787 | 38.65458 | 25903 ft | 393 kts | 333° |
| 2026-05-06 17:16 | 54.54233 | 38.63351 | 25897 ft | 393 kts | 333° |
| 2026-05-06 17:16 | 54.56678 | 38.61239 | 25903 ft | 393 kts | 333° |
| 2026-05-06 17:17 | 54.59126 | 38.59120 | 25910 ft | 393 kts | 333° |
| 2026-05-06 17:17 | 54.61570 | 38.57001 | 25896 ft | 393 kts | 333° |
| 2026-05-06 17:17 | 54.64009 | 38.54886 | 25889 ft | 393 kts | 333° |
| 2026-05-06 17:17 | 54.66458 | 38.52759 | 25887 ft | 393 kts | 333° |
| 2026-05-06 17:18 | 54.68895 | 38.50631 | 25886 ft | 393 kts | 332° |
| 2026-05-06 17:18 | 54.71334 | 38.48496 | 25886 ft | 393 kts | 332° |
| 2026-05-06 17:18 | 54.73774 | 38.46362 | 25884 ft | 393 kts | 332° |
| 2026-05-06 17:18 | 54.76217 | 38.44234 | 25652 ft | 392 kts | 333° |
| 2026-05-06 17:19 | 54.78652 | 38.42118 | 25471 ft | 390 kts | 332° |
| 2026-05-06 17:19 | 54.81073 | 38.40016 | 25294 ft | 390 kts | 333° |
| 2026-05-06 17:19 | 54.83458 | 38.37921 | 25105 ft | 389 kts | 329° |
| 2026-05-06 17:19 | 54.85687 | 38.35298 | 24925 ft | 386 kts | 319° |
| 2026-05-06 17:20 | 54.87620 | 38.32075 | 24744 ft | 385 kts | 313° |
| 2026-05-06 17:20 | 54.89483 | 38.28741 | 24557 ft | 384 kts | 313° |
| 2026-05-06 17:20 | 54.91351 | 38.25414 | 24380 ft | 383 kts | 314° |
| 2026-05-06 17:20 | 54.93212 | 38.22103 | 24203 ft | 382 kts | 314° |
| 2026-05-06 17:21 | 54.95067 | 38.18801 | 24020 ft | 381 kts | 313° |
| 2026-05-06 17:21 | 54.96917 | 38.15504 | 23837 ft | 381 kts | 313° |
| 2026-05-06 17:21 | 54.98763 | 38.12205 | 23396 ft | 379 kts | 313° |
| 2026-05-06 17:21 | 55.00589 | 38.08927 | 23002 ft | 375 kts | 313° |
| 2026-05-06 17:22 | 55.02399 | 38.05670 | 22613 ft | 373 kts | 313° |
| 2026-05-06 17:22 | 55.04195 | 38.02429 | 22215 ft | 370 kts | 313° |
| 2026-05-06 17:22 | 55.05955 | 37.99248 | 21844 ft | 368 kts | 313° |
| 2026-05-06 17:22 | 55.07727 | 37.96045 | 21464 ft | 366 kts | 313° |
| 2026-05-06 17:23 | 55.09486 | 37.92865 | 21090 ft | 363 kts | 313° |
| 2026-05-06 17:23 | 55.11234 | 37.89692 | 20730 ft | 361 kts | 313° |
| 2026-05-06 17:23 | 55.12970 | 37.86533 | 20475 ft | 360 kts | 313° |
| 2026-05-06 17:23 | 55.14696 | 37.83390 | 20200 ft | 358 kts | 313° |
| 2026-05-06 17:24 | 55.16434 | 37.80286 | 19941 ft | 357 kts | 316° |
| 2026-05-06 17:24 | 55.18390 | 37.77623 | 19884 ft | 357 kts | 323° |
| 2026-05-06 17:24 | 55.20408 | 37.75083 | 19882 ft | 357 kts | 322° |
| 2026-05-06 17:24 | 55.22421 | 37.72527 | 19890 ft | 357 kts | 322° |
| 2026-05-06 17:25 | 55.24429 | 37.69959 | 19892 ft | 357 kts | 322° |
| 2026-05-06 17:25 | 55.26398 | 37.67437 | 19885 ft | 343 kts | 322° |
| 2026-05-06 17:25 | 55.28293 | 37.65012 | 19820 ft | 335 kts | 322° |
| 2026-05-06 17:25 | 55.30162 | 37.62617 | 19545 ft | 330 kts | 322° |
| 2026-05-06 17:26 | 55.32010 | 37.60244 | 19304 ft | 329 kts | 322° |
| 2026-05-06 17:26 | 55.33851 | 37.57875 | 19062 ft | 327 kts | 322° |
| 2026-05-06 17:26 | 55.35686 | 37.55512 | 18837 ft | 326 kts | 322° |
| 2026-05-06 17:26 | 55.37489 | 37.53189 | 18607 ft | 325 kts | 322° |
| 2026-05-06 17:27 | 55.39309 | 37.50843 | 18373 ft | 324 kts | 322° |
| 2026-05-06 17:27 | 55.40801 | 37.48918 | 18186 ft | 323 kts | 322° |
| 2026-05-06 17:27 | 55.42609 | 37.46584 | 17951 ft | 322 kts | 322° |
| 2026-05-06 17:27 | 55.44411 | 37.44252 | 17725 ft | 321 kts | 322° |
| 2026-05-06 17:28 | 55.46206 | 37.41931 | 17484 ft | 320 kts | 322° |
| 2026-05-06 17:28 | 55.47995 | 37.39620 | 17258 ft | 318 kts | 322° |
| 2026-05-06 17:28 | 55.49847 | 37.37503 | 17034 ft | 318 kts | 332° |
| 2026-05-06 17:28 | 55.51929 | 37.36154 | 16781 ft | 320 kts | 345° |
| 2026-05-06 17:29 | 55.54144 | 37.35704 | 16397 ft | 321 kts | 358° |
| 2026-05-06 17:29 | 55.56380 | 37.35706 | 16034 ft | 320 kts | 358° |
| 2026-05-06 17:29 | 55.58596 | 37.35690 | 15679 ft | 318 kts | 357° |
| 2026-05-06 17:29 | 55.60804 | 37.35666 | 15321 ft | 316 kts | 357° |
| 2026-05-06 17:30 | 55.62994 | 37.35641 | 14964 ft | 314 kts | 357° |
| 2026-05-06 17:30 | 55.65150 | 37.35617 | 14615 ft | 313 kts | 357° |
| 2026-05-06 17:30 | 55.67346 | 37.35594 | 14264 ft | 311 kts | 357° |
| 2026-05-06 17:30 | 55.69476 | 37.35573 | 13947 ft | 308 kts | 357° |
| 2026-05-06 17:31 | 55.71616 | 37.35549 | 13888 ft | 308 kts | 357° |
| 2026-05-06 17:31 | 55.73517 | 37.35506 | 13895 ft | 309 kts | 356° |
| 2026-05-06 17:31 | 55.74876 | 37.35454 | 13897 ft | 309 kts | 356° |
| 2026-05-06 17:31 | 55.77024 | 37.35275 | 13897 ft | 309 kts | 354° |
| 2026-05-06 17:32 | 55.79161 | 37.35010 | 13861 ft | 309 kts | 353° |
| 2026-05-06 17:32 | 55.81308 | 37.34721 | 13414 ft | 310 kts | 353° |
| 2026-05-06 17:32 | 55.83457 | 37.34440 | 13003 ft | 309 kts | 353° |
| 2026-05-06 17:32 | 55.85597 | 37.34170 | 12616 ft | 307 kts | 353° |
| 2026-05-06 17:33 | 55.87727 | 37.33913 | 12235 ft | 306 kts | 353° |
| 2026-05-06 17:33 | 55.89843 | 37.33668 | 11941 ft | 301 kts | 354° |
| 2026-05-06 17:33 | 55.91542 | 37.33476 | 11813 ft | 298 kts | 354° |
| 2026-05-06 17:33 | 55.93600 | 37.33249 | 11323 ft | 301 kts | 354° |
| 2026-05-06 17:34 | 55.95700 | 37.33014 | 10910 ft | 300 kts | 353° |
| 2026-05-06 17:34 | 55.97711 | 37.32397 | 10526 ft | 295 kts | 340° |
| 2026-05-06 17:34 | 55.99570 | 37.30922 | 10118 ft | 290 kts | 326° |
| 2026-05-06 17:34 | 56.01252 | 37.29008 | 9972 ft | 283 kts | 325° |
| 2026-05-06 17:35 | 56.02921 | 37.27106 | 10004 ft | 285 kts | 325° |
| 2026-05-06 17:35 | 56.04505 | 37.25304 | 10002 ft | 285 kts | 325° |
| 2026-05-06 17:35 | 56.06113 | 37.23476 | 10007 ft | 285 kts | 325° |
| 2026-05-06 17:36 | 56.09464 | 37.19675 | 9920 ft | 285 kts | 324° |
| 2026-05-06 17:36 | 56.10995 | 37.17475 | 9694 ft | 281 kts | 313° |
| 2026-05-06 17:36 | 56.12371 | 37.14989 | 9444 ft | 281 kts | 313° |
| 2026-05-06 17:36 | 56.13727 | 37.12544 | 9197 ft | 280 kts | 313° |
| 2026-05-06 17:37 | 56.15097 | 37.10087 | 8948 ft | 278 kts | 313° |
| 2026-05-06 17:37 | 56.16494 | 37.07680 | 8692 ft | 279 kts | 320° |
| 2026-05-06 17:37 | 56.18200 | 37.06028 | 8440 ft | 282 kts | 340° |
| 2026-05-06 17:37 | 56.20148 | 37.05556 | 8189 ft | 285 kts | 1° |
| 2026-05-06 17:38 | 56.22085 | 37.06364 | 7938 ft | 288 kts | 22° |
| 2026-05-06 17:38 | 56.23727 | 37.08417 | 7685 ft | 291 kts | 46° |
| 2026-05-06 17:38 | 56.24788 | 37.11449 | 7440 ft | 292 kts | 70° |
| 2026-05-06 17:38 | 56.25075 | 37.15033 | 7232 ft | 290 kts | 95° |
| 2026-05-06 17:39 | 56.24545 | 37.18507 | 7106 ft | 289 kts | 118° |
| 2026-05-06 17:39 | 56.23329 | 37.21327 | 6989 ft | 285 kts | 142° |
| 2026-05-06 17:39 | 56.21623 | 37.23075 | 7010 ft | 282 kts | 165° |
| 2026-05-06 17:39 | 56.19696 | 37.23517 | 7015 ft | 278 kts | 187° |
| 2026-05-06 17:40 | 56.17854 | 37.22631 | 7015 ft | 274 kts | 209° |
| 2026-05-06 17:40 | 56.16349 | 37.20597 | 7014 ft | 271 kts | 231° |
| 2026-05-06 17:40 | 56.15361 | 37.17808 | 6903 ft | 269 kts | 245° |
| 2026-05-06 17:40 | 56.14549 | 37.14823 | 6678 ft | 261 kts | 245° |
| 2026-05-06 17:41 | 56.13781 | 37.11955 | 6550 ft | 249 kts | 245° |
| 2026-05-06 17:41 | 56.13047 | 37.09206 | 6357 ft | 242 kts | 245° |
| 2026-05-06 17:41 | 56.12307 | 37.06517 | 6061 ft | 239 kts | 240° |
| 2026-05-06 17:41 | 56.11258 | 37.04219 | 5731 ft | 240 kts | 222° |
| 2026-05-06 17:42 | 56.09891 | 37.02504 | 5399 ft | 238 kts | 214° |
| 2026-05-06 17:42 | 56.08501 | 37.00896 | 5027 ft | 236 kts | 214° |
| 2026-05-06 17:42 | 56.07127 | 36.99294 | 4781 ft | 235 kts | 215° |
| 2026-05-06 17:42 | 56.05774 | 36.97715 | 4583 ft | 236 kts | 215° |
| 2026-05-06 17:43 | 56.04400 | 36.96109 | 4379 ft | 235 kts | 215° |
| 2026-05-06 17:43 | 56.03056 | 36.94539 | 4248 ft | 223 kts | 215° |
| 2026-05-06 17:43 | 56.01814 | 36.93093 | 4179 ft | 203 kts | 215° |
| 2026-05-06 17:43 | 56.00668 | 36.91819 | 4081 ft | 186 kts | 207° |
| 2026-05-06 17:44 | 55.99458 | 36.91321 | 3998 ft | 174 kts | 181° |
| 2026-05-06 17:44 | 55.98298 | 36.91740 | 3990 ft | 170 kts | 157° |
| 2026-05-06 17:44 | 55.97294 | 36.92866 | 4003 ft | 171 kts | 146° |
| 2026-05-06 17:44 | 55.96328 | 36.94068 | 3954 ft | 173 kts | 147° |
| 2026-05-06 17:45 | 55.95339 | 36.95291 | 3727 ft | 172 kts | 146° |
| 2026-05-06 17:45 | 55.94359 | 36.96504 | 3587 ft | 170 kts | 146° |
| 2026-05-06 17:45 | 55.93389 | 36.97706 | 3477 ft | 170 kts | 146° |
| 2026-05-06 17:45 | 55.92418 | 36.98914 | 3383 ft | 170 kts | 143° |
| 2026-05-06 17:46 | 55.91663 | 37.00502 | 3287 ft | 169 kts | 116° |
| 2026-05-06 17:46 | 55.91371 | 37.02515 | 3200 ft | 168 kts | 89° |
| 2026-05-06 17:46 | 55.91565 | 37.04546 | 3125 ft | 166 kts | 72° |
| 2026-05-06 17:46 | 55.91875 | 37.06536 | 3052 ft | 166 kts | 72° |
| 2026-05-06 17:47 | 55.92164 | 37.08527 | 2999 ft | 165 kts | 73° |
| 2026-05-06 17:47 | 55.92453 | 37.10482 | 3017 ft | 166 kts | 73° |
| 2026-05-06 17:47 | 55.92741 | 37.12392 | 3006 ft | 156 kts | 72° |
| 2026-05-06 17:47 | 55.93021 | 37.14237 | 2999 ft | 154 kts | 72° |
| 2026-05-06 17:48 | 55.93300 | 37.16076 | 3002 ft | 153 kts | 72° |
| 2026-05-06 17:48 | 55.93580 | 37.17913 | 2913 ft | 153 kts | 73° |
| 2026-05-06 17:48 | 55.93860 | 37.19755 | 2753 ft | 154 kts | 73° |
| 2026-05-06 17:48 | 55.94140 | 37.21598 | 2567 ft | 154 kts | 75° |
| 2026-05-06 17:49 | 55.94416 | 37.23430 | 2377 ft | 152 kts | 76° |
| 2026-05-06 17:49 | 55.94688 | 37.25237 | 2193 ft | 150 kts | 76° |
| 2026-05-06 17:49 | 55.94930 | 37.26912 | 1993 ft | 148 kts | 77° |
| 2026-05-06 17:49 | 55.95078 | 37.28233 | 1827 ft | 146 kts | 81° |
| 2026-05-06 17:50 | 55.95293 | 37.29926 | 1679 ft | 143 kts | 70° |
| 2026-05-06 17:50 | 55.95608 | 37.31620 | 1538 ft | 144 kts | 70° |
| 2026-05-06 17:50 | 55.95899 | 37.33329 | 1336 ft | 143 kts | 73° |
| 2026-05-06 17:50 | 55.96172 | 37.35040 | 1107 ft | 143 kts | 72° |
| 2026-05-06 17:51 | 55.96426 | 37.36745 | 964 ft | 141 kts | 72° |
| 2026-05-06 17:51 | 55.96675 | 37.38446 | 792 ft | 141 kts | 73° |
| 2026-05-06 17:51 | 55.96948 | 37.40260 | 1027 ft | 167 kts | 73° |
| 2026-05-06 17:51 | 55.97279 | 37.42410 | 1520 ft | 189 kts | 73° |
| 2026-05-06 17:52 | 55.97627 | 37.44665 | 2373 ft | 187 kts | 73° |
| 2026-05-06 17:52 | 55.97994 | 37.47019 | 2572 ft | 206 kts | 73° |
| 2026-05-06 17:52 | 55.98412 | 37.49632 | 2771 ft | 229 kts | 73° |
| 2026-05-06 17:52 | 55.98846 | 37.52397 | 3481 ft | 232 kts | 73° |
| 2026-05-06 17:53 | 55.99271 | 37.55190 | 4292 ft | 234 kts | 73° |
| 2026-05-06 17:53 | 55.99707 | 37.58027 | 5034 ft | 239 kts | 73° |
| 2026-05-06 17:53 | 56.00147 | 37.60859 | 5764 ft | 243 kts | 73° |
| 2026-05-06 17:53 | 56.00608 | 37.63799 | 6485 ft | 247 kts | 73° |
| 2026-05-06 17:54 | 56.01080 | 37.66808 | 6900 ft | 253 kts | 73° |
| 2026-05-06 17:54 | 56.01674 | 37.69755 | 6989 ft | 251 kts | 54° |
| 2026-05-06 17:54 | 56.02934 | 37.71803 | 7014 ft | 244 kts | 21° |
| 2026-05-06 17:54 | 56.04565 | 37.72297 | 7001 ft | 237 kts | 348° |
| 2026-05-06 17:55 | 56.06161 | 37.71619 | 7005 ft | 237 kts | 342° |
| 2026-05-06 17:55 | 56.07751 | 37.70866 | 6999 ft | 237 kts | 342° |
| 2026-05-06 17:55 | 56.09346 | 37.70115 | 7002 ft | 237 kts | 342° |
| 2026-05-06 17:55 | 56.10927 | 37.69374 | 7003 ft | 237 kts | 342° |
| 2026-05-06 17:56 | 56.12508 | 37.68544 | 7000 ft | 235 kts | 334° |
| 2026-05-06 17:56 | 56.13909 | 37.67068 | 7015 ft | 233 kts | 319° |
| 2026-05-06 17:56 | 56.15173 | 37.65244 | 6999 ft | 233 kts | 319° |
| 2026-05-06 17:56 | 56.16435 | 37.63436 | 7005 ft | 232 kts | 319° |
| 2026-05-06 17:57 | 56.17702 | 37.61624 | 7007 ft | 233 kts | 318° |
| 2026-05-06 17:57 | 56.18734 | 37.59439 | 6999 ft | 230 kts | 296° |
| 2026-05-06 17:57 | 56.19196 | 37.56724 | 7007 ft | 229 kts | 274° |
| 2026-05-06 17:57 | 56.19039 | 37.53898 | 7012 ft | 229 kts | 255° |
| 2026-05-06 17:58 | 56.18613 | 37.51135 | 7013 ft | 230 kts | 255° |
| 2026-05-06 17:58 | 56.18194 | 37.48366 | 7011 ft | 230 kts | 255° |
| 2026-05-06 17:58 | 56.17779 | 37.45630 | 7011 ft | 230 kts | 255° |
| 2026-05-06 17:58 | 56.17360 | 37.42866 | 7011 ft | 230 kts | 256° |
| 2026-05-06 17:59 | 56.16943 | 37.40111 | 7012 ft | 229 kts | 256° |
| 2026-05-06 17:59 | 56.16526 | 37.37353 | 7012 ft | 229 kts | 256° |
| 2026-05-06 17:59 | 56.16113 | 37.34587 | 7013 ft | 229 kts | 256° |
| 2026-05-06 17:59 | 56.15703 | 37.31821 | 7009 ft | 229 kts | 256° |
| 2026-05-06 18:00 | 56.15310 | 37.29056 | 7012 ft | 229 kts | 256° |
| 2026-05-06 18:00 | 56.14922 | 37.26283 | 7015 ft | 229 kts | 257° |
| 2026-05-06 18:00 | 56.14534 | 37.23510 | 7016 ft | 229 kts | 257° |
| 2026-05-06 18:00 | 56.14143 | 37.20743 | 7014 ft | 230 kts | 256° |
| 2026-05-06 18:01 | 56.13747 | 37.17972 | 7011 ft | 229 kts | 256° |
| 2026-05-06 18:01 | 56.13357 | 37.15227 | 7010 ft | 229 kts | 256° |
| 2026-05-06 18:01 | 56.12964 | 37.12456 | 7013 ft | 229 kts | 256° |
| 2026-05-06 18:01 | 56.12570 | 37.09678 | 7003 ft | 230 kts | 256° |
| 2026-05-06 18:02 | 56.12124 | 37.06941 | 7000 ft | 230 kts | 247° |
| 2026-05-06 18:02 | 56.11277 | 37.04513 | 7000 ft | 232 kts | 229° |
| 2026-05-06 18:02 | 56.10033 | 37.02664 | 7000 ft | 234 kts | 214° |
| 2026-05-06 18:02 | 56.08666 | 37.01082 | 7013 ft | 234 kts | 215° |
| 2026-05-06 18:03 | 56.07765 | 37.00031 | 7003 ft | 234 kts | 215° |
| 2026-05-06 18:03 | 56.05939 | 36.97905 | 7008 ft | 234 kts | 215° |
| 2026-05-06 18:03 | 56.04576 | 36.96316 | 7002 ft | 234 kts | 216° |
| 2026-05-06 18:03 | 56.03214 | 36.94728 | 7004 ft | 234 kts | 215° |
| 2026-05-06 18:04 | 56.01872 | 36.93161 | 7000 ft | 234 kts | 215° |
| 2026-05-06 18:04 | 56.00473 | 36.91681 | 7000 ft | 235 kts | 201° |
| 2026-05-06 18:04 | 55.98871 | 36.91411 | 6997 ft | 241 kts | 169° |
| 2026-05-06 18:04 | 55.97361 | 36.92711 | 7005 ft | 245 kts | 147° |
| 2026-05-06 18:05 | 55.95971 | 36.94443 | 7006 ft | 247 kts | 147° |
| 2026-05-06 18:05 | 55.94568 | 36.96206 | 7006 ft | 246 kts | 147° |
| 2026-05-06 18:05 | 55.93163 | 36.97963 | 7003 ft | 247 kts | 147° |
| 2026-05-06 18:05 | 55.91844 | 36.99909 | 7001 ft | 248 kts | 126° |
| 2026-05-06 18:06 | 55.91300 | 37.02773 | 7004 ft | 249 kts | 87° |
| 2026-05-06 18:06 | 55.91571 | 37.05832 | 6997 ft | 251 kts | 76° |
| 2026-05-06 18:06 | 55.92027 | 37.08836 | 7002 ft | 251 kts | 73° |
| 2026-05-06 18:06 | 55.92528 | 37.11819 | 7001 ft | 251 kts | 72° |
| 2026-05-06 18:07 | 55.93033 | 37.14805 | 7003 ft | 251 kts | 72° |
| 2026-05-06 18:07 | 55.93525 | 37.17796 | 7003 ft | 251 kts | 73° |
| 2026-05-06 18:07 | 55.93834 | 37.20807 | 6999 ft | 251 kts | 92° |
| 2026-05-06 18:07 | 55.93399 | 37.23789 | 6728 ft | 249 kts | 122° |
| 2026-05-06 18:08 | 55.92229 | 37.26010 | 6357 ft | 246 kts | 151° |
| 2026-05-06 18:08 | 55.90641 | 37.26991 | 5987 ft | 242 kts | 178° |
| 2026-05-06 18:08 | 55.89003 | 37.26607 | 5616 ft | 237 kts | 205° |
| 2026-05-06 18:08 | 55.87662 | 37.25013 | 5344 ft | 229 kts | 228° |
| 2026-05-06 18:09 | 55.87064 | 37.23528 | 5127 ft | 218 kts | 244° |
| 2026-05-06 18:09 | 55.86433 | 37.20322 | 4774 ft | 199 kts | 255° |
| 2026-05-06 18:09 | 55.86069 | 37.18026 | 4548 ft | 185 kts | 257° |
| 2026-05-06 18:09 | 55.85849 | 37.16595 | 4377 ft | 170 kts | 257° |
| 2026-05-06 18:10 | 55.85550 | 37.14071 | 4028 ft | 149 kts | 271° |
| 2026-05-06 18:10 | 55.85605 | 37.12864 | 3865 ft | 147 kts | 282° |
| 2026-05-06 18:10 | 55.85912 | 37.11148 | 3557 ft | 145 kts | 297° |
| 2026-05-06 18:10 | 55.86458 | 37.09655 | 3204 ft | 143 kts | 313° |
| 2026-05-06 18:11 | 55.87198 | 37.08496 | 3044 ft | 141 kts | 328° |
| 2026-05-06 18:11 | 55.88075 | 37.07731 | 3001 ft | 140 kts | 343° |
| 2026-05-06 18:11 | 55.89033 | 37.07414 | 3005 ft | 140 kts | 358° |
| 2026-05-06 18:11 | 55.89985 | 37.07558 | 3004 ft | 140 kts | 13° |
| 2026-05-06 18:12 | 55.90894 | 37.08159 | 3003 ft | 140 kts | 28° |
| 2026-05-06 18:12 | 55.91685 | 37.09173 | 3005 ft | 141 kts | 42° |
| 2026-05-06 18:12 | 55.92290 | 37.10545 | 2996 ft | 143 kts | 62° |
| 2026-05-06 18:12 | 55.92632 | 37.12216 | 3010 ft | 144 kts | 69° |
| 2026-05-06 18:13 | 55.92934 | 37.13913 | 3005 ft | 144 kts | 71° |
| 2026-05-06 18:13 | 55.93215 | 37.15625 | 3004 ft | 144 kts | 72° |
| 2026-05-06 18:13 | 55.93486 | 37.17342 | 2952 ft | 144 kts | 72° |
| 2026-05-06 18:13 | 55.93751 | 37.19063 | 2819 ft | 143 kts | 72° |
| 2026-05-06 18:14 | 55.94013 | 37.20776 | 2650 ft | 143 kts | 73° |
| 2026-05-06 18:14 | 55.94273 | 37.22481 | 2471 ft | 142 kts | 73° |
| 2026-05-06 18:14 | 55.94532 | 37.24188 | 2286 ft | 142 kts | 73° |
| 2026-05-06 18:14 | 55.94789 | 37.25884 | 2100 ft | 142 kts | 73° |
| 2026-05-06 18:15 | 55.94999 | 37.27273 | 1945 ft | 142 kts | 74° |
| 2026-05-06 18:15 | 55.95231 | 37.28807 | 1778 ft | 142 kts | 74° |
| 2026-05-06 18:15 | 55.95487 | 37.30505 | 1589 ft | 142 kts | 74° |
| 2026-05-06 18:15 | 55.95743 | 37.32199 | 1407 ft | 141 kts | 73° |
| 2026-05-06 18:16 | 55.95993 | 37.33893 | 1210 ft | 141 kts | 74° |
| 2026-05-06 18:16 | 55.96251 | 37.35579 | 1036 ft | 141 kts | 73° |
| 2026-05-06 18:16 | 55.96513 | 37.37260 | 824 ft | 140 kts | 74° |
| 2026-05-06 18:16 | 55.96761 | 37.38946 | 671 ft | 140 kts | 75° |
| 2026-05-06 18:17 | 55.96996 | 37.40504 | 639 ft | 113 kts | 75° |
| 2026-05-06 18:17 | 55.97148 | 37.41517 | 643 ft | 60 kts | 75° |
| 2026-05-06 18:17 | 55.97230 | 37.42057 | 645 ft | 41 kts | 74° |
| 2026-05-06 18:17 | 55.97299 | 37.42534 | 641 ft | 32 kts | 75° |
| 2026-05-06 18:18 | 55.97347 | 37.42863 | 642 ft | 14 kts | 75° |
| 2026-05-06 18:18 | 55.97394 | 37.42949 | 641 ft | 9 kts | 1° |
| 2026-05-06 18:18 | 55.97456 | 37.42926 | 640 ft | 10 kts | 345° |
| 2026-05-06 18:18 | 55.97524 | 37.42893 | 643 ft | 10 kts | 345° |
| 2026-05-06 18:19 | 55.97599 | 37.42858 | 641 ft | 13 kts | 345° |
| 2026-05-06 18:19 | 55.97693 | 37.42815 | 639 ft | 14 kts | 346° |
| 2026-05-06 18:19 | 55.97761 | 37.42738 | 639 ft | 11 kts | 284° |
| 2026-05-06 18:19 | 55.97748 | 37.42607 | 639 ft | 11 kts | 255° |
| 2026-05-06 18:20 | 55.97731 | 37.42494 | 640 ft | 9 kts | 255° |
| 2026-05-06 18:20 | 55.97738 | 37.42405 | 643 ft | 7 kts | 315° |
| 2026-05-06 18:20 | 55.97776 | 37.42368 | 645 ft | 6 kts | 323° |
| 2026-05-06 18:20 | 55.97790 | 37.42284 | 646 ft | 12 kts | 266° |
| 2026-05-06 18:21 | 55.97770 | 37.42133 | 642 ft | 9 kts | 275° |
| 2026-05-06 18:21 | 55.97813 | 37.42080 | 644 ft | 7 kts | 339° |
| 2026-05-06 18:21 | 55.97831 | 37.42015 | 639 ft | 6 kts | 283° |
| 2026-05-06 18:21 | 55.97836 | 37.41964 | 641 ft | 1 kts | 280° |
| 2026-05-06 18:22 | 55.97837 | 37.41955 | 640 ft | 0 kts | 280° |
| 2026-05-06 18:22 | 55.97838 | 37.41947 | 641 ft | 2 kts | 281° |
| 2026-05-06 18:22 | 55.97840 | 37.41931 | 640 ft | 0 kts | 280° |
| 2026-05-06 18:22 | 55.97841 | 37.41923 | 642 ft | 1 kts | 281° |
| 2026-05-06 18:23 | 55.97841 | 37.41922 | 642 ft | 0 kts | 281° |